Lionhead Wind

Lionhead weather stationLocated on Lionhead Ridge near West Yellowstone. Use the nearest SNOTEL station for snow depth data: Madison Plateau. The data on this page is also available to view at dataGarrison.com.

Elevation
9420ft
Jump to table bottom
Date Time Temperature
deg F
RH, % Wind Speed Wind Gust Wind Direction Pressure Light
02/22/24 07:00 15.6 94 2 7 N - 22 718.300 0
02/22/24 06:00 15.5 95 8 17 NW - 306 717.560 0
02/22/24 05:00 16.1 96 3 14 N - 347 717.120 0
02/22/24 04:00 16.3 96 7 13 W - 281 717.000 0
02/22/24 03:00 17.3 96 4 12 NW - 313 716.980 0
02/22/24 02:00 17.2 97 7 11 SW - 247 716.820 0
02/22/24 01:00 17.3 97 10 14 W - 250 716.860 0
02/22/24 00:00 16.8 96 4 13 NW - 305 716.640 0
02/21/24 23:00 17.6 93 3 17 NE - 48 716.380 0
02/21/24 22:00 17.3 94 3 16 NW - 313 716.100 0
02/21/24 21:00 17.8 93 3 14 N - 14 715.780 0
02/21/24 20:00 18.1 92 8 18 W - 292 715.120 0
02/21/24 19:00 18.1 93 4 17 NW - 319 714.980 0
02/21/24 18:00 18.3 92 3 17 NE - 66 714.660 0
02/21/24 17:00 19.6 91 4 17 NW - 330 714.120 0
02/21/24 16:00 21.6 89 9 20 W - 289 713.360 0
02/21/24 15:00 25.8 88 5 16 NW - 305 712.960 0
02/21/24 14:00 27.7 92 3 10 SE - 143 712.540 0
02/21/24 13:00 25.3 91 2 6 E - 108 712.480 0
02/21/24 12:00 29.5 89 2 6 NE - 52 712.580 0
02/21/24 11:00 31.9 96 1 4 N - 11 712.620 0
02/21/24 10:00 26.8 90 1 6 NW - 329 712.560 0
02/21/24 09:00 22.2 88 4 7 W - 288 712.420 0
02/21/24 08:00 24.1 97 3 8 W - 292 712.280 0
02/21/24 07:00 16.3 97 4 7 W - 265 712.600 0
02/21/24 06:00 16.8 96 6 8 W - 251 712.840 0
02/21/24 05:00 32.0 96 8 11 W - 257 712.860 0
02/21/24 04:00 18.4 96 6 9 W - 260 712.780 0
02/21/24 03:00 19.3 96 7 10 SW - 240 713.100 0
02/21/24 02:00 19.5 97 7 11 W - 260 713.400 0
02/21/24 01:00 19.0 97 7 13 W - 265 713.740 0
02/21/24 00:00 18.2 97 12 17 W - 284 714.080 0
02/20/24 23:00 19.0 96 17 23 W - 267 714.240 0
02/20/24 22:00 20.0 97 17 25 W - 268 714.620 0
02/20/24 21:00 20.3 97 19 27 W - 277 714.480 0
02/20/24 20:00 20.6 97 19 29 W - 268 714.700 0
02/20/24 19:00 20.2 97 23 32 W - 271 714.340 0
02/20/24 18:00 20.2 97 19 32 W - 272 714.480 0
02/20/24 17:00 20.2 97 21 38 W - 288 714.520 0
02/20/24 16:00 21.3 97 31 46 W - 274 714.480 0
02/20/24 15:00 22.5 96 25 43 W - 263 714.440 0
02/20/24 14:00 22.5 97 27 41 W - 270 714.660 0
02/20/24 13:00 23.3 96 21 34 W - 248 714.360 0
02/20/24 12:00 23.1 97 20 31 SW - 237 715.020 0
02/20/24 11:00 22.3 97 18 31 SW - 239 715.420 0
02/20/24 10:00 22.3 97 16 26 SW - 244 715.520 0
02/20/24 09:00 21.2 97 13 18 W - 251 715.700 0
02/20/24 08:00 19.9 97 15 21 W - 257 715.280 0
02/20/24 07:00 19.1 96 13 15 W - 263 715.160 0
02/20/24 06:00 19.3 96 14 18 W - 261 714.940 0